Main page
METAR-TAF:

METAR-TAF

Airports :

Sulaimaniyah International Airport

Sulaymaniyah, Iraq

latitude: 35-33-39N, longitude: 45-18-52E, elevation: 760 m

Current weather observation

The report was made 12 minutes ago, at 03:00 UTC
Wind 4 kt from the West
Temperature 20°C
Humidity 46%
Pressure 1009 hPa
Visibility: 7000 m

METAR: ORSU 240300Z 27004KT 7000 NSC 20/08 Q1009

Time: 06:12 (03:12 UTC)

Forecast

The report was made 4 hours and 12 minutes ago, at 23:00 UTC
Forecast valid from 24 at 00 UTC to 25 at 00 UTC
Wind 4 kt from variable directions
Visibility: 8000 m
Becoming
from 24 at 08 UTC to 24 at 10 UTC
Wind 5 kt from the South/Southwest
Temporary
from 24 at 12 UTC to 24 at 18 UTC
Wind 8 kt from the West
Becoming
from 24 at 18 UTC to 24 at 20 UTC
Wind 5 kt from the Northwest

TAF: ORSU 232300Z 2400/2500 VRB04KT 8000 NSC BECMG 2408/2410 21005KT TEMPO 2412/2418 26008KT BECMG 2418/2420 31005KT

Weather observations and forecasts of more than 4000 airports (METAR and TAF reports).

The available stations are represented by yellow and red dots on the map.

Hover mouse over dot to see the name of the station.

Then click to see weather observations and forecasts.

To change the map : click on the green buttons with a black cross to zoom in, on the green button with a dash to zoom out, or on the green arrows for adjacent maps.


METAR-TAF: